createdAt,value
2022-11-13T00:02:34.729Z,89.94
2022-11-13T00:05:58.254Z,87.88
2022-11-13T00:09:13.941Z,88.74
2022-11-13T00:12:29.772Z,90.39
2022-11-13T00:15:44.869Z,91.07
2022-11-13T00:19:00.969Z,90.33
2022-11-13T00:22:16.227Z,93.17
2022-11-13T00:25:32.141Z,93.47
2022-11-13T00:28:52.557Z,92.13
2022-11-13T00:32:07.964Z,88.34
2022-11-13T00:35:23.992Z,86.78
2022-11-13T00:38:39.300Z,88.54
2022-11-13T00:41:54.887Z,93.34
2022-11-13T00:45:11.213Z,94.14
2022-11-13T00:48:27.219Z,91.60
2022-11-13T00:51:42.901Z,89.72
2022-11-13T00:54:59.148Z,91.40
2022-11-13T00:58:15.038Z,94.21
2022-11-13T01:01:31.364Z,92.66
2022-11-13T01:04:47.143Z,90.47
2022-11-13T01:08:03.805Z,93.67
2022-11-13T01:11:21.176Z,93.53
2022-11-13T01:14:36.949Z,92.12
2022-11-13T01:17:55.140Z,91.24
2022-11-13T01:21:19.020Z,91.17
2022-11-13T01:24:34.917Z,88.90
2022-11-13T01:27:51.133Z,89.04
2022-11-13T01:31:08.004Z,90.53
2022-11-13T01:34:24.099Z,92.35
2022-11-13T01:37:40.254Z,92.13
2022-11-13T01:40:56.230Z,90.82
2022-11-13T01:44:15.968Z,90.10
2022-11-13T01:47:31.960Z,91.85
2022-11-13T01:50:47.064Z,92.22
2022-11-13T01:54:05.203Z,91.77
2022-11-13T01:57:21.253Z,89.95
2022-11-13T02:00:37.256Z,90.63
2022-11-13T02:03:53.128Z,90.97
2022-11-13T02:07:13.274Z,90.68
2022-11-13T02:10:28.954Z,89.83
2022-11-13T02:13:45.466Z,91.42
2022-11-13T02:17:03.323Z,91.77
2022-11-13T02:20:27.392Z,90.18
2022-11-13T02:24:19.757Z,88.79
2022-11-13T02:27:46.081Z,86.88
2022-11-13T02:31:12.198Z,86.77
2022-11-13T02:34:27.997Z,90.06
2022-11-13T02:37:44.144Z,90.18
2022-11-13T02:41:00.107Z,91.13
2022-11-13T02:44:15.137Z,90.83
2022-11-13T02:47:31.207Z,90.66
2022-11-13T02:50:47.093Z,89.99
2022-11-13T02:54:03.388Z,91.05
2022-11-13T02:57:19.081Z,90.63
2022-11-13T03:00:34.297Z,90.24
2022-11-13T03:03:58.267Z,90.03
2022-11-13T03:07:15.310Z,90.22
2022-11-13T03:10:31.209Z,90.36
2022-11-13T03:13:47.209Z,90.84
2022-11-13T03:17:02.925Z,91.04
2022-11-13T03:20:18.357Z,90.40
2022-11-13T03:23:34.353Z,90.35
2022-11-13T03:26:50.221Z,90.28
2022-11-13T03:30:06.912Z,90.37
2022-11-13T03:33:23.501Z,92.35
2022-11-13T03:36:39.274Z,92.76
2022-11-13T03:39:55.059Z,92.02
2022-11-13T03:43:11.108Z,91.64
2022-11-13T03:46:26.072Z,92.10
2022-11-13T03:49:42.261Z,92.15
2022-11-13T03:52:58.614Z,90.65
2022-11-13T03:56:13.998Z,90.10
2022-11-13T03:59:30.367Z,89.88
2022-11-13T04:02:46.208Z,90.77
2022-11-13T04:06:01.235Z,90.41
2022-11-13T04:09:17.456Z,90.03
2022-11-13T04:12:33.395Z,92.03
2022-11-13T04:15:49.262Z,92.71
2022-11-13T04:19:05.130Z,92.10
2022-11-13T04:22:21.255Z,92.12
2022-11-13T04:25:37.209Z,91.99
2022-11-13T04:28:53.169Z,92.27
2022-11-13T04:32:09.307Z,92.82
2022-11-13T04:35:25.185Z,92.38
2022-11-13T04:38:41.266Z,91.12
2022-11-13T04:42:16.132Z,90.27
2022-11-13T04:45:31.190Z,90.36
2022-11-13T04:48:47.250Z,91.17
2022-11-13T04:52:03.668Z,89.72
2022-11-13T04:55:19.425Z,89.58
2022-11-13T04:58:35.393Z,89.67
2022-11-13T05:01:51.313Z,89.21
2022-11-13T05:05:07.444Z,90.95
2022-11-13T05:08:23.293Z,92.13
2022-11-13T05:11:39.195Z,92.37
2022-11-13T05:14:55.150Z,92.23
2022-11-13T05:18:11.397Z,91.69
2022-11-13T05:21:27.435Z,91.48
2022-11-13T05:24:43.275Z,91.56
2022-11-13T05:27:59.453Z,91.12
2022-11-13T05:31:15.989Z,91.29
2022-11-13T05:34:31.029Z,90.35
2022-11-13T05:37:47.606Z,87.73
2022-11-13T05:41:18.230Z,86.21
2022-11-13T05:44:34.565Z,84.87
2022-11-13T05:47:50.723Z,86.75
2022-11-13T05:51:08.621Z,91.25
2022-11-13T05:54:24.180Z,93.95
2022-11-13T05:57:40.466Z,93.46
2022-11-13T06:01:09.997Z,92.02
2022-11-13T06:04:25.243Z,91.18
2022-11-13T06:07:40.934Z,89.76
2022-11-13T06:11:03.839Z,88.47
2022-11-13T06:14:19.593Z,86.15
2022-11-13T06:17:35.297Z,86.36
2022-11-13T06:20:51.125Z,85.77
2022-11-13T06:24:06.737Z,88.00
2022-11-13T06:27:22.655Z,88.84
2022-11-13T06:30:38.047Z,88.68
2022-11-13T06:33:54.395Z,87.29
2022-11-13T06:37:10.408Z,86.64
2022-11-13T06:40:26.352Z,86.74
2022-11-13T06:43:42.435Z,88.54
2022-11-13T06:46:58.586Z,89.47
2022-11-13T06:50:14.557Z,88.17
2022-11-13T06:53:30.101Z,90.31
2022-11-13T06:56:45.634Z,88.51
2022-11-13T07:00:01.441Z,86.81
2022-11-13T07:03:18.844Z,87.74
2022-11-13T07:06:40.076Z,89.32
2022-11-13T07:09:56.567Z,88.76
2022-11-13T07:13:12.467Z,88.31
2022-11-13T07:16:44.008Z,89.46
2022-11-13T07:20:04.899Z,90.25
2022-11-13T07:23:20.327Z,89.18
2022-11-13T07:26:36.192Z,89.27
2022-11-13T07:29:51.563Z,90.35
2022-11-13T07:33:07.544Z,89.84
2022-11-13T07:36:23.238Z,89.94
2022-11-13T07:39:39.271Z,90.04
2022-11-13T07:43:02.167Z,90.68
2022-11-13T07:46:18.167Z,91.20
2022-11-13T07:49:33.199Z,91.93
2022-11-13T07:52:49.888Z,92.82
2022-11-13T07:56:07.048Z,94.64
2022-11-13T07:59:23.311Z,94.51
2022-11-13T08:02:39.250Z,95.43
2022-11-13T08:06:00.570Z,98.23
2022-11-13T08:09:16.468Z,98.26
2022-11-13T08:12:32.491Z,96.17
2022-11-13T08:15:48.527Z,95.57
2022-11-13T08:19:04.800Z,93.61
2022-11-13T08:22:20.486Z,92.59
2022-11-13T08:25:36.328Z,92.28
2022-11-13T08:28:51.418Z,91.78
2022-11-13T08:32:07.429Z,90.57
2022-11-13T08:35:28.996Z,89.71
2022-11-13T08:38:44.312Z,88.71
2022-11-13T08:41:59.183Z,87.43
2022-11-13T08:45:15.648Z,87.02
2022-11-13T08:48:31.655Z,84.91
2022-11-13T08:51:47.582Z,85.18
2022-11-13T08:55:03.449Z,85.11
2022-11-13T08:58:19.321Z,83.26
2022-11-13T09:01:35.146Z,85.02
2022-11-13T09:04:50.468Z,86.69
2022-11-13T09:08:06.597Z,88.31
2022-11-13T09:11:22.700Z,86.83
2022-11-13T09:14:39.149Z,87.22
2022-11-13T09:17:59.445Z,87.69
2022-11-13T09:21:14.636Z,87.03
2022-11-13T09:24:30.681Z,86.82
2022-11-13T09:27:55.686Z,86.67
2022-11-13T09:31:11.527Z,86.05
2022-11-13T09:34:27.934Z,84.49
2022-11-13T09:37:43.293Z,84.19
2022-11-13T09:41:05.757Z,82.51
2022-11-13T09:44:29.089Z,81.82
2022-11-13T09:47:44.749Z,81.68
2022-11-13T09:51:02.652Z,83.34
2022-11-13T09:54:18.387Z,83.83
2022-11-13T09:57:51.878Z,82.38
2022-11-13T10:01:12.680Z,82.98
2022-11-13T10:04:45.391Z,82.48
2022-11-13T10:08:18.961Z,80.87
2022-11-13T10:11:53.174Z,79.31
2022-11-13T10:15:08.851Z,78.93
2022-11-13T10:18:27.729Z,78.42
2022-11-13T10:22:19.582Z,78.00
2022-11-13T10:25:36.341Z,75.61
2022-11-13T10:29:06.582Z,75.77
2022-11-13T10:32:24.356Z,75.54
2022-11-13T10:36:17.765Z,74.66
2022-11-13T10:39:41.953Z,73.63
2022-11-13T10:43:06.802Z,72.94
2022-11-13T10:46:26.824Z,73.13
2022-11-13T10:49:42.613Z,73.54
2022-11-13T10:52:58.870Z,72.66
2022-11-13T10:56:31.369Z,71.57
2022-11-13T10:59:47.582Z,71.21
2022-11-13T11:03:03.550Z,73.24
2022-11-13T11:06:19.699Z,72.03
2022-11-13T11:09:38.167Z,71.56
2022-11-13T11:12:56.027Z,69.29
2022-11-13T11:16:15.501Z,69.71
2022-11-13T11:19:32.084Z,69.40
2022-11-13T11:22:49.739Z,68.98
2022-11-13T11:26:12.889Z,69.32
2022-11-13T11:29:32.481Z,68.44
2022-11-13T11:33:09.956Z,70.12
2022-11-13T11:36:29.488Z,69.43
2022-11-13T11:39:55.840Z,67.53
2022-11-13T11:43:25.440Z,68.30
2022-11-13T11:46:45.499Z,67.79
2022-11-13T11:50:03.112Z,66.48
2022-11-13T11:53:21.377Z,65.74
2022-11-13T11:56:42.979Z,60.89
2022-11-13T12:00:12.393Z,50.70
2022-11-13T12:03:52.821Z,53.42
2022-11-13T12:07:39.440Z,57.93
2022-11-13T12:11:16.742Z,58.53
2022-11-13T12:14:49.794Z,55.12
2022-11-13T12:18:17.832Z,58.00
2022-11-13T12:21:55.419Z,60.39
2022-11-13T12:25:28.029Z,60.63
2022-11-13T12:29:09.563Z,59.90
2022-11-13T12:32:24.656Z,59.64
2022-11-13T12:35:40.663Z,51.73
2022-11-13T12:39:06.414Z,50.58
2022-11-13T12:42:30.901Z,55.38
2022-11-13T12:45:52.231Z,59.04
2022-11-13T12:49:28.359Z,60.89
2022-11-13T12:52:44.754Z,62.47
2022-11-13T12:56:02.319Z,64.31
2022-11-13T12:59:34.109Z,63.82
2022-11-13T13:03:03.185Z,62.34
2022-11-13T13:06:43.672Z,61.65
2022-11-13T13:09:59.371Z,62.05
2022-11-13T13:13:23.974Z,62.92
2022-11-13T13:16:40.739Z,64.16
2022-11-13T13:20:26.897Z,66.23
2022-11-13T13:23:50.267Z,64.71
2022-11-13T13:27:25.073Z,64.24
2022-11-13T13:31:16.498Z,63.77
2022-11-13T13:34:36.710Z,60.51
2022-11-13T13:38:04.693Z,59.33
2022-11-13T13:41:35.663Z,58.03
2022-11-13T13:44:50.678Z,56.70
2022-11-13T13:48:10.645Z,58.96
2022-11-13T13:51:43.812Z,59.56
2022-11-13T13:55:00.823Z,61.21
2022-11-13T13:58:18.016Z,62.03
2022-11-13T14:01:34.270Z,62.88
2022-11-13T14:04:52.409Z,64.24
2022-11-13T14:08:17.915Z,65.18
2022-11-13T14:11:33.852Z,64.78
2022-11-13T14:14:49.602Z,64.19
2022-11-13T14:18:13.901Z,63.88
2022-11-13T14:21:29.941Z,64.82
2022-11-13T14:25:04.838Z,66.49
2022-11-13T14:28:31.573Z,66.58
2022-11-13T14:31:47.807Z,66.47
2022-11-13T14:35:03.718Z,67.42
2022-11-13T14:38:25.023Z,67.29
2022-11-13T14:41:46.158Z,68.77
2022-11-13T14:45:14.004Z,68.55
2022-11-13T14:48:33.719Z,69.28
2022-11-13T14:51:54.822Z,69.95
2022-11-13T14:55:25.477Z,70.21
2022-11-13T14:58:44.892Z,70.75
2022-11-13T15:02:00.917Z,70.79
2022-11-13T15:05:17.137Z,70.84
2022-11-13T15:08:34.800Z,72.02
2022-11-13T15:11:51.055Z,72.13
2022-11-13T15:15:09.257Z,72.94
2022-11-13T15:18:24.727Z,73.63
2022-11-13T15:21:40.671Z,73.63
2022-11-13T15:24:55.643Z,73.86
2022-11-13T15:28:11.855Z,74.56
2022-11-13T15:31:31.590Z,75.94
2022-11-13T15:34:47.755Z,76.74
2022-11-13T15:38:03.551Z,76.72
2022-11-13T15:41:23.559Z,77.32
2022-11-13T15:44:40.789Z,78.39
2022-11-13T15:47:56.603Z,77.74
2022-11-13T15:51:37.881Z,77.98
2022-11-13T15:54:53.920Z,79.08
2022-11-13T15:58:19.024Z,80.53
2022-11-13T16:01:34.933Z,82.34
2022-11-13T16:04:56.965Z,81.46
2022-11-13T16:08:13.894Z,79.67
2022-11-13T16:11:34.915Z,79.91
2022-11-13T16:14:50.956Z,81.64
2022-11-13T16:18:07.128Z,82.87
2022-11-13T16:21:23.023Z,84.79
2022-11-13T16:24:38.604Z,88.33
2022-11-13T16:27:54.946Z,89.17
2022-11-13T16:31:10.988Z,90.02
2022-11-13T16:34:26.842Z,89.85
2022-11-13T16:37:42.954Z,89.72
2022-11-13T16:40:58.903Z,89.38
2022-11-13T16:44:15.058Z,89.22
2022-11-13T16:47:30.834Z,90.26
2022-11-13T16:50:46.951Z,91.92
2022-11-13T16:54:02.817Z,94.08
2022-11-13T16:57:19.875Z,95.30
2022-11-13T17:00:36.097Z,96.25
2022-11-13T17:03:51.923Z,100.00
2022-11-13T17:07:13.176Z,100.00
2022-11-13T17:10:31.973Z,100.00
2022-11-13T17:13:50.362Z,100.00
2022-11-13T17:17:07.339Z,100.00
2022-11-13T17:20:23.133Z,100.00
2022-11-13T17:23:38.786Z,100.00
2022-11-13T17:26:54.597Z,100.00
2022-11-13T17:30:12.384Z,100.00
2022-11-13T17:33:28.195Z,100.00
2022-11-13T17:36:43.933Z,100.00
2022-11-13T17:39:59.919Z,100.00
2022-11-13T17:43:15.961Z,100.00
2022-11-13T17:46:31.951Z,100.00
2022-11-13T17:49:47.786Z,100.00
2022-11-13T17:53:02.916Z,100.00
2022-11-13T17:56:20.221Z,100.00
2022-11-13T17:59:35.906Z,100.00
2022-11-13T18:02:52.207Z,100.00
2022-11-13T18:06:18.340Z,100.00
2022-11-13T18:09:35.327Z,100.00
2022-11-13T18:12:50.748Z,100.00
2022-11-13T18:16:08.432Z,100.00
2022-11-13T18:19:23.810Z,100.00
2022-11-13T18:22:39.678Z,100.00
2022-11-13T18:25:54.683Z,100.00
2022-11-13T18:29:09.982Z,100.00
2022-11-13T18:32:25.745Z,100.00
2022-11-13T18:35:41.019Z,100.00
2022-11-13T18:38:57.038Z,100.00
2022-11-13T18:42:12.916Z,100.00
2022-11-13T18:45:28.814Z,100.00
2022-11-13T18:48:45.351Z,100.00
2022-11-13T18:52:00.795Z,100.00
2022-11-13T18:55:17.174Z,100.00
2022-11-13T18:58:35.203Z,100.00
2022-11-13T19:01:50.745Z,100.00
2022-11-13T19:05:07.066Z,100.00
2022-11-13T19:08:22.698Z,100.00
2022-11-13T19:11:37.885Z,100.00
2022-11-13T19:14:53.830Z,100.00
2022-11-13T19:18:10.042Z,100.00
2022-11-13T19:21:27.713Z,100.00
2022-11-13T19:24:44.078Z,100.00
2022-11-13T19:28:00.326Z,100.00
2022-11-13T19:31:18.255Z,100.00
2022-11-13T19:34:34.506Z,100.00
2022-11-13T19:37:56.593Z,100.00
2022-11-13T19:41:12.245Z,100.00
2022-11-13T19:44:28.081Z,100.00
2022-11-13T19:47:44.008Z,100.00
2022-11-13T19:51:09.621Z,100.00
2022-11-13T19:54:24.824Z,100.00
2022-11-13T19:57:45.108Z,100.00
2022-11-13T20:01:08.442Z,100.00
2022-11-13T20:04:23.973Z,100.00
2022-11-13T20:07:40.036Z,100.00
2022-11-13T20:11:07.055Z,100.00
2022-11-13T20:14:22.943Z,100.00
2022-11-13T20:17:38.884Z,100.00
2022-11-13T20:20:55.262Z,100.00
2022-11-13T20:24:10.643Z,100.00
2022-11-13T20:27:27.125Z,100.00
2022-11-13T20:30:42.923Z,100.00
2022-11-13T20:33:59.134Z,100.00
2022-11-13T20:37:15.307Z,100.00
2022-11-13T20:40:30.890Z,100.00
2022-11-13T20:43:47.439Z,100.00
2022-11-13T20:47:03.054Z,100.00
2022-11-13T20:50:19.026Z,100.00
2022-11-13T20:53:35.073Z,100.00
2022-11-13T20:56:51.020Z,100.00
2022-11-13T21:00:07.512Z,100.00
2022-11-13T21:03:23.202Z,100.00
2022-11-13T21:06:39.493Z,100.00
2022-11-13T21:09:55.006Z,100.00
2022-11-13T21:13:11.161Z,100.00
2022-11-13T21:16:28.235Z,100.00
2022-11-13T21:19:44.019Z,100.00
2022-11-13T21:22:59.834Z,100.00
2022-11-13T21:26:16.218Z,100.00
2022-11-13T21:29:31.996Z,100.00
2022-11-13T21:32:47.910Z,100.00
2022-11-13T21:36:05.820Z,100.00
2022-11-13T21:39:22.846Z,100.00
2022-11-13T21:42:37.894Z,100.00
2022-11-13T21:45:53.959Z,100.00
2022-11-13T21:49:10.199Z,100.00
2022-11-13T21:52:25.958Z,100.00
2022-11-13T21:55:49.255Z,100.00
2022-11-13T21:59:05.224Z,100.00
2022-11-13T22:02:20.773Z,100.00
2022-11-13T22:05:37.215Z,100.00
2022-11-13T22:08:56.814Z,100.00
2022-11-13T22:12:13.243Z,100.00
2022-11-13T22:15:29.157Z,100.00
2022-11-13T22:18:45.493Z,100.00
2022-11-13T22:22:01.270Z,100.00
2022-11-13T22:25:17.285Z,100.00
2022-11-13T22:28:33.667Z,100.00
2022-11-13T22:31:50.083Z,100.00
2022-11-13T22:35:06.544Z,100.00
2022-11-13T22:38:21.945Z,100.00
2022-11-13T22:41:37.058Z,100.00
2022-11-13T22:44:56.489Z,100.00
2022-11-13T22:48:13.372Z,100.00
2022-11-13T22:51:38.177Z,100.00
2022-11-13T22:54:54.154Z,100.00
2022-11-13T22:58:10.076Z,100.00
2022-11-13T23:01:30.121Z,100.00
2022-11-13T23:04:46.031Z,100.00
2022-11-13T23:08:02.204Z,100.00
2022-11-13T23:11:30.194Z,100.00
2022-11-13T23:14:46.774Z,100.00
2022-11-13T23:18:05.838Z,100.00
2022-11-13T23:21:25.443Z,100.00
2022-11-13T23:24:41.127Z,100.00
2022-11-13T23:27:56.880Z,100.00
2022-11-13T23:31:12.480Z,100.00
2022-11-13T23:34:53.266Z,100.00
2022-11-13T23:38:04.195Z,100.00
2022-11-13T23:41:20.234Z,100.00
2022-11-13T23:44:36.263Z,100.00
2022-11-13T23:47:52.334Z,100.00
2022-11-13T23:51:08.208Z,100.00
2022-11-13T23:54:24.266Z,100.00
2022-11-13T23:57:39.949Z,100.00
